createdAt,value
2023-01-30T00:00:10.491Z,8.65
2023-01-30T00:01:33.501Z,7.56
2023-01-30T00:02:54.774Z,7.53
2023-01-30T00:04:17.325Z,7.76
2023-01-30T00:05:38.697Z,7.28
2023-01-30T00:07:00.850Z,7.46
2023-01-30T00:08:22.420Z,7.17
2023-01-30T00:09:43.790Z,6.92
2023-01-30T00:11:06.205Z,6.82
2023-01-30T00:12:27.845Z,6.31
2023-01-30T00:13:49.458Z,7.78
2023-01-30T00:15:12.246Z,8.17
2023-01-30T00:16:34.074Z,7.97
2023-01-30T00:17:55.564Z,7.80
2023-01-30T00:19:16.610Z,8.44
2023-01-30T00:20:38.305Z,8.69
2023-01-30T00:21:59.487Z,9.12
2023-01-30T00:23:20.656Z,8.44
2023-01-30T00:24:41.709Z,7.76
2023-01-30T00:26:04.281Z,7.64
2023-01-30T00:27:25.574Z,6.09
2023-01-30T00:28:47.000Z,10.16
2023-01-30T00:30:10.018Z,7.56
2023-01-30T00:31:31.147Z,7.52
2023-01-30T00:32:56.036Z,6.65
2023-01-30T00:34:17.681Z,7.16
2023-01-30T00:35:46.955Z,7.12
2023-01-30T00:37:08.781Z,7.30
2023-01-30T00:38:29.795Z,7.15
2023-01-30T00:39:50.814Z,7.62
2023-01-30T00:41:12.405Z,7.99
2023-01-30T00:42:35.176Z,8.16
2023-01-30T00:43:56.328Z,8.51
2023-01-30T00:45:17.920Z,8.12
2023-01-30T00:46:39.124Z,7.66
2023-01-30T00:48:00.393Z,7.34
2023-01-30T00:49:21.779Z,7.42
2023-01-30T00:50:43.619Z,6.93
2023-01-30T00:52:04.823Z,7.31
2023-01-30T00:53:25.970Z,6.78
2023-01-30T00:54:47.012Z,7.17
2023-01-30T00:56:09.069Z,7.07
2023-01-30T00:57:30.253Z,7.32
2023-01-30T00:58:52.032Z,6.94
2023-01-30T01:00:15.249Z,5.72
2023-01-30T01:01:36.733Z,6.84
2023-01-30T01:02:58.073Z,6.88
2023-01-30T01:04:19.298Z,7.06
2023-01-30T01:05:40.257Z,6.79
2023-01-30T01:07:01.795Z,7.33
2023-01-30T01:08:23.035Z,7.58
2023-01-30T01:09:44.356Z,7.49
2023-01-30T01:11:05.739Z,8.30
2023-01-30T01:12:26.761Z,8.44
2023-01-30T01:13:47.709Z,7.95
2023-01-30T01:15:10.192Z,7.57
2023-01-30T01:16:32.372Z,7.24
2023-01-30T01:17:53.762Z,8.01
2023-01-30T01:19:14.954Z,7.82
2023-01-30T01:20:36.376Z,7.56
2023-01-30T01:21:57.697Z,7.68
2023-01-30T01:23:19.990Z,7.65
2023-01-30T01:24:41.328Z,7.74
2023-01-30T01:26:03.108Z,7.09
2023-01-30T01:27:24.933Z,7.52
2023-01-30T01:28:46.351Z,7.44
2023-01-30T01:30:10.020Z,7.44
2023-01-30T01:31:31.158Z,7.78
2023-01-30T01:32:52.781Z,7.67
2023-01-30T01:34:14.513Z,7.71
2023-01-30T01:35:40.580Z,7.69
2023-01-30T01:37:02.520Z,7.86
2023-01-30T01:38:23.564Z,7.55
2023-01-30T01:39:45.411Z,7.68
2023-01-30T01:41:06.548Z,7.32
2023-01-30T01:42:29.841Z,7.63
2023-01-30T01:44:12.148Z,7.47
2023-01-30T01:45:33.622Z,7.32
2023-01-30T01:46:56.489Z,7.62
2023-01-30T01:48:29.288Z,6.87
2023-01-30T01:49:50.635Z,6.69
2023-01-30T01:51:16.776Z,7.42
2023-01-30T01:52:37.743Z,7.33
2023-01-30T01:54:02.562Z,7.46
2023-01-30T01:55:24.090Z,7.18
2023-01-30T01:56:46.145Z,7.33
2023-01-30T01:58:16.202Z,7.67
2023-01-30T02:01:02.146Z,8.12
2023-01-30T02:02:23.601Z,7.88
2023-01-30T02:03:48.427Z,7.73
2023-01-30T02:05:09.713Z,7.83
2023-01-30T02:06:31.140Z,7.88
2023-01-30T02:08:08.061Z,8.09
2023-01-30T02:09:29.364Z,8.88
2023-01-30T02:11:17.937Z,8.76
2023-01-30T02:12:39.673Z,8.22
2023-01-30T02:14:01.141Z,8.58
2023-01-30T02:15:22.398Z,8.37
2023-01-30T02:16:43.907Z,7.86
2023-01-30T02:18:05.250Z,8.51
2023-01-30T02:21:11.653Z,6.40
2023-01-30T02:24:11.120Z,8.07
2023-01-30T02:25:44.852Z,8.06
2023-01-30T02:27:19.467Z,8.05
2023-01-30T02:29:03.549Z,7.98
2023-01-30T02:34:51.549Z,9.07
2023-01-30T05:17:02.053Z,6.85
2023-01-30T05:18:23.485Z,7.29
2023-01-30T05:19:44.485Z,7.18
2023-01-30T05:21:06.759Z,7.27
2023-01-30T05:22:28.145Z,5.71
2023-01-30T05:23:50.443Z,7.34
2023-01-30T05:25:11.519Z,7.36
2023-01-30T05:26:32.978Z,7.22
2023-01-30T05:27:55.591Z,6.94
2023-01-30T05:29:17.052Z,6.24
2023-01-30T05:30:38.559Z,7.60
2023-01-30T05:32:00.127Z,7.49
2023-01-30T05:33:21.503Z,6.68
2023-01-30T05:34:43.220Z,7.32
2023-01-30T05:36:05.231Z,7.38
2023-01-30T05:37:26.371Z,7.51
2023-01-30T05:38:48.040Z,8.54
2023-01-30T05:40:12.202Z,6.63
2023-01-30T05:41:34.672Z,7.79
2023-01-30T05:42:56.015Z,7.65
2023-01-30T05:44:17.857Z,7.15
2023-01-30T05:45:38.949Z,7.68
2023-01-30T05:47:01.127Z,8.01
2023-01-30T05:48:22.791Z,6.93
2023-01-30T05:49:43.905Z,7.57
2023-01-30T05:51:05.641Z,7.30
2023-01-30T05:52:27.053Z,6.64
2023-01-30T05:53:48.547Z,7.08
2023-01-30T05:55:09.966Z,6.91
2023-01-30T05:56:32.792Z,7.17
2023-01-30T05:57:54.231Z,7.19
2023-01-30T05:59:15.287Z,6.46
2023-01-30T06:00:36.944Z,7.07
2023-01-30T06:01:58.039Z,7.27
2023-01-30T06:03:22.853Z,7.53
2023-01-30T06:04:44.345Z,7.06
2023-01-30T06:06:07.124Z,7.13
2023-01-30T06:07:28.568Z,5.92
2023-01-30T06:08:56.240Z,7.25
2023-01-30T06:10:18.004Z,7.44
2023-01-30T06:11:39.502Z,7.69
2023-01-30T06:13:01.087Z,7.84
2023-01-30T06:14:22.328Z,7.27
2023-01-30T06:15:43.821Z,6.98
2023-01-30T06:17:05.309Z,7.31
2023-01-30T06:18:27.089Z,8.10
2023-01-30T06:19:48.475Z,7.74
2023-01-30T06:21:09.992Z,8.18
2023-01-30T06:22:31.598Z,7.15
2023-01-30T06:23:53.187Z,7.35
2023-01-30T06:25:14.637Z,7.29
2023-01-30T06:26:36.271Z,7.17
2023-01-30T06:27:57.698Z,8.27
2023-01-30T06:29:18.904Z,7.23
2023-01-30T06:30:40.273Z,7.89
2023-01-30T06:32:01.831Z,7.81
2023-01-30T06:33:22.946Z,8.21
2023-01-30T06:34:44.284Z,13.76
2023-01-30T06:36:08.622Z,9.31
2023-01-30T06:37:29.937Z,7.42
2023-01-30T06:38:51.087Z,7.77
2023-01-30T06:40:13.532Z,6.80
2023-01-30T06:41:34.956Z,7.54
2023-01-30T06:42:55.966Z,7.93
2023-01-30T06:44:17.101Z,7.57
2023-01-30T06:45:38.545Z,8.23
2023-01-30T06:47:00.265Z,8.06
2023-01-30T06:48:23.642Z,7.88
2023-01-30T06:49:44.930Z,11.12
2023-01-30T06:51:05.934Z,12.55
2023-01-30T06:52:27.358Z,8.58
2023-01-30T06:53:49.317Z,8.14
2023-01-30T06:56:33.328Z,7.48
2023-01-30T06:58:08.698Z,7.83
2023-01-30T06:59:29.971Z,8.07
2023-01-30T07:00:52.200Z,8.89
2023-01-30T07:02:13.719Z,9.89
2023-01-30T07:03:35.106Z,9.17
2023-01-30T07:04:56.623Z,9.23
2023-01-30T07:06:18.323Z,9.65
2023-01-30T07:07:39.859Z,9.04
2023-01-30T07:09:01.289Z,9.87
2023-01-30T07:10:23.098Z,8.73
2023-01-30T07:11:44.727Z,8.54
2023-01-30T07:13:06.118Z,8.43
2023-01-30T07:14:27.377Z,7.59
2023-01-30T07:15:48.835Z,7.98
2023-01-30T07:17:10.122Z,7.42
2023-01-30T07:18:31.279Z,7.55
2023-01-30T07:19:52.540Z,7.84
2023-01-30T07:21:14.019Z,8.08
2023-01-30T07:22:35.594Z,8.28
2023-01-30T07:23:56.895Z,8.19
2023-01-30T07:25:19.470Z,8.83
2023-01-30T07:26:41.668Z,8.82
2023-01-30T07:28:06.318Z,8.48
2023-01-30T07:29:27.482Z,8.86
2023-01-30T07:30:49.158Z,9.09
2023-01-30T07:32:15.040Z,8.71
2023-01-30T07:33:36.418Z,9.18
2023-01-30T07:34:58.198Z,9.71
2023-01-30T07:36:19.760Z,9.73
2023-01-30T07:37:40.837Z,9.44
2023-01-30T07:39:04.189Z,9.04
2023-01-30T07:40:27.785Z,37.59
2023-01-30T07:41:49.554Z,15.78
2023-01-30T07:43:13.758Z,13.49
2023-01-30T07:44:34.757Z,9.65
2023-01-30T07:45:55.843Z,8.99
2023-01-30T07:47:16.844Z,9.02
2023-01-30T07:48:38.232Z,8.42
2023-01-30T07:49:59.539Z,9.38
2023-01-30T07:51:21.113Z,8.83
2023-01-30T07:52:42.839Z,9.41
2023-01-30T07:54:04.266Z,8.89
2023-01-30T07:55:26.097Z,8.97
2023-01-30T07:56:55.111Z,9.90
2023-01-30T07:58:16.641Z,8.73
2023-01-30T07:59:38.650Z,8.98
2023-01-30T08:02:15.814Z,8.20
2023-01-30T08:03:37.645Z,8.83
2023-01-30T08:04:58.777Z,8.86
2023-01-30T08:06:20.305Z,9.14
2023-01-30T08:07:41.475Z,9.01
2023-01-30T08:10:47.330Z,8.14
2023-01-30T08:12:09.156Z,8.13
2023-01-30T08:13:31.483Z,8.58
2023-01-30T08:14:52.914Z,7.71
2023-01-30T08:16:14.771Z,13.96
2023-01-30T08:17:36.347Z,8.43
2023-01-30T08:18:58.038Z,8.39
2023-01-30T08:20:19.753Z,7.98
2023-01-30T08:21:41.079Z,9.14
2023-01-30T08:23:02.846Z,8.62
2023-01-30T08:24:24.287Z,8.72
2023-01-30T08:25:45.405Z,8.79
2023-01-30T08:27:07.047Z,8.98
2023-01-30T08:28:28.683Z,8.71
2023-01-30T08:29:49.960Z,8.94
2023-01-30T08:31:11.936Z,8.88
2023-01-30T08:32:33.149Z,8.52
2023-01-30T08:33:56.980Z,8.85
2023-01-30T08:35:18.466Z,8.89
2023-01-30T08:36:39.889Z,9.23
2023-01-30T08:38:01.152Z,9.53
2023-01-30T08:40:36.949Z,10.18
2023-01-30T08:41:58.680Z,9.83
2023-01-30T08:43:20.077Z,10.18
2023-01-30T08:44:43.151Z,10.13
2023-01-30T08:47:26.367Z,10.91
2023-01-30T08:48:50.218Z,10.17
2023-01-30T08:50:11.143Z,10.21
2023-01-30T08:51:32.555Z,11.36
2023-01-30T08:52:55.717Z,9.47
2023-01-30T08:55:38.226Z,9.69
2023-01-30T08:57:01.636Z,10.01
2023-01-30T08:58:23.071Z,10.78
2023-01-30T08:59:44.672Z,8.98
2023-01-30T09:01:07.982Z,9.06
2023-01-30T09:02:30.916Z,8.94
2023-01-30T09:03:52.874Z,9.01
2023-01-30T09:05:15.019Z,8.89
2023-01-30T09:06:37.002Z,9.38
2023-01-30T09:07:58.210Z,10.04
2023-01-30T09:09:19.700Z,9.12
2023-01-30T09:10:41.301Z,7.97
2023-01-30T09:12:02.827Z,8.91
2023-01-30T09:13:24.793Z,9.07
2023-01-30T09:14:46.781Z,9.21
2023-01-30T09:16:08.587Z,9.38
2023-01-30T09:17:31.182Z,8.91
2023-01-30T09:18:52.945Z,7.18
2023-01-30T09:21:27.190Z,8.17
2023-01-30T09:22:48.709Z,7.36
2023-01-30T09:24:10.457Z,8.55
2023-01-30T09:25:31.907Z,7.57
2023-01-30T09:26:53.898Z,7.05
2023-01-30T09:28:15.028Z,7.23
2023-01-30T09:29:36.423Z,7.14
2023-01-30T09:30:58.601Z,7.47
2023-01-30T09:32:20.087Z,7.24
2023-01-30T09:33:41.635Z,7.72
2023-01-30T09:36:15.799Z,7.08
2023-01-30T09:37:37.316Z,7.80
2023-01-30T09:38:58.940Z,7.26
2023-01-30T09:41:59.368Z,7.53
2023-01-30T09:43:30.653Z,8.56
2023-01-30T09:44:58.891Z,7.12
2023-01-30T09:46:39.335Z,6.09
2023-01-30T09:48:33.757Z,5.91
2023-01-30T09:52:01.197Z,5.92
2023-01-30T09:54:43.585Z,5.94
2023-01-30T09:56:06.606Z,5.89
2023-01-30T09:57:28.359Z,5.89
2023-01-30T09:59:05.488Z,5.70
2023-01-30T10:00:48.939Z,5.69
2023-01-30T10:02:37.245Z,6.06
2023-01-30T10:04:15.860Z,5.88
2023-01-30T10:05:50.953Z,5.97
2023-01-30T10:07:23.216Z,5.59
2023-01-30T10:08:59.967Z,4.79
2023-01-30T10:10:41.444Z,5.62
2023-01-30T10:12:15.592Z,5.66
2023-01-30T10:15:59.775Z,4.19
2023-01-30T10:18:05.409Z,5.48
2023-01-30T10:19:44.304Z,5.64
2023-01-30T10:21:16.971Z,5.26
2023-01-30T10:24:57.345Z,4.72
2023-01-30T10:26:26.157Z,9.83
2023-01-30T10:27:53.088Z,5.83
2023-01-30T10:31:02.846Z,5.91
2023-01-30T10:32:32.429Z,5.49
2023-01-30T10:34:08.028Z,6.13
2023-01-30T10:35:39.780Z,6.09
2023-01-30T10:37:14.482Z,5.72
2023-01-30T10:38:51.868Z,5.96
2023-01-30T10:40:18.916Z,6.37
2023-01-30T10:41:47.797Z,6.91
2023-01-30T10:44:33.678Z,6.48
2023-01-30T10:45:59.019Z,6.86
2023-01-30T10:59:52.743Z,6.08
2023-01-30T11:01:32.800Z,5.97
2023-01-30T11:03:00.495Z,6.98
2023-01-30T11:04:35.555Z,6.09
2023-01-30T11:07:20.268Z,7.07
2023-01-30T11:08:42.251Z,9.38
2023-01-30T11:10:07.424Z,9.24
2023-01-30T11:11:30.775Z,7.89
2023-01-30T11:13:00.527Z,7.40
2023-01-30T11:14:22.434Z,13.04
2023-01-30T11:15:45.731Z,10.82
2023-01-30T11:17:07.488Z,6.84
2023-01-30T11:23:10.719Z,6.56
2023-01-30T11:24:44.082Z,5.73
2023-01-30T11:26:11.711Z,6.30
2023-01-30T11:27:32.352Z,6.24
2023-01-30T11:41:56.900Z,6.14
2023-01-30T11:43:20.213Z,7.42
2023-01-30T11:44:41.234Z,5.49
2023-01-30T11:46:03.098Z,6.04
2023-01-30T11:47:26.133Z,5.89
2023-01-30T11:49:11.161Z,6.52
2023-01-30T11:50:31.693Z,6.45
2023-01-30T11:51:44.155Z,7.06
2023-01-30T11:53:07.726Z,6.67
2023-01-30T11:54:33.901Z,7.09
2023-01-30T11:56:04.180Z,6.08
2023-01-30T11:57:20.919Z,6.57
2023-01-30T11:58:42.225Z,6.65
2023-01-30T12:01:22.541Z,6.23
2023-01-30T12:02:45.233Z,6.62
2023-01-30T12:04:08.554Z,6.96
2023-01-30T12:05:33.607Z,6.98
2023-01-30T12:07:07.730Z,6.77
2023-01-30T12:08:41.884Z,6.33
2023-01-30T12:09:58.266Z,6.96
2023-01-30T12:11:32.406Z,6.75
2023-01-30T12:12:55.570Z,5.90
2023-01-30T12:15:43.609Z,5.97
2023-01-30T12:17:17.686Z,6.67
2023-01-30T12:20:13.451Z,7.14
2023-01-30T12:23:14.052Z,7.23
2023-01-30T12:24:56.004Z,7.15
2023-01-30T12:26:20.597Z,7.54
2023-01-30T12:29:42.343Z,7.67
2023-01-30T12:31:13.401Z,7.72
2023-01-30T12:32:35.825Z,7.46
2023-01-30T12:33:57.665Z,8.03
2023-01-30T12:35:19.254Z,7.61
2023-01-30T12:36:53.932Z,7.43
2023-01-30T12:38:36.922Z,7.14
2023-01-30T12:40:22.285Z,6.05
2023-01-30T12:41:50.376Z,7.25
2023-01-30T12:46:34.524Z,7.52
2023-01-30T12:48:18.958Z,7.53
2023-01-30T12:49:56.344Z,7.89
2023-01-30T12:52:59.980Z,7.38
2023-01-30T12:54:48.217Z,7.83
2023-01-30T12:56:30.550Z,7.79
2023-01-30T12:58:22.588Z,8.16
2023-01-30T13:00:21.237Z,8.11
2023-01-30T13:02:04.429Z,8.24
2023-01-30T13:03:35.116Z,8.63
2023-01-30T13:05:16.690Z,9.09
2023-01-30T13:07:02.378Z,8.07
2023-01-30T13:08:32.965Z,9.05
2023-01-30T13:10:14.023Z,8.94
2023-01-30T13:11:39.717Z,9.09
2023-01-30T13:13:16.564Z,8.04
2023-01-30T13:16:15.947Z,8.81
2023-01-30T13:17:50.257Z,8.87
2023-01-30T13:19:28.109Z,8.86
2023-01-30T13:21:15.033Z,8.27
2023-01-30T13:22:46.667Z,8.33
2023-01-30T13:25:49.689Z,9.12
2023-01-30T13:27:15.086Z,8.97
2023-01-30T13:28:45.034Z,8.43
2023-01-30T13:30:07.939Z,9.58
2023-01-30T13:32:48.721Z,8.69
2023-01-30T13:37:03.380Z,7.63
2023-01-30T13:38:26.288Z,8.74
2023-01-30T13:39:50.266Z,9.56
2023-01-30T13:41:17.926Z,9.01
2023-01-30T13:42:49.755Z,9.27
2023-01-30T13:44:20.188Z,9.53
2023-01-30T13:45:43.567Z,9.39
2023-01-30T13:47:24.824Z,9.97
2023-01-30T13:48:52.654Z,9.88
2023-01-30T13:50:46.840Z,10.33
2023-01-30T14:06:04.692Z,8.80
2023-01-30T14:07:32.546Z,7.34
2023-01-30T14:08:55.693Z,6.96
2023-01-30T14:10:22.571Z,6.98
2023-01-30T14:11:49.481Z,8.01
2023-01-30T14:13:12.843Z,6.93
2023-01-30T14:14:34.341Z,6.48
2023-01-30T14:16:15.281Z,7.24
2023-01-30T14:33:52.933Z,8.72
2023-01-30T14:35:18.545Z,7.67
2023-01-30T14:39:54.640Z,8.79
2023-01-30T14:41:25.065Z,8.36
2023-01-30T14:43:06.850Z,8.79
2023-01-30T14:44:59.834Z,8.71
2023-01-30T14:46:25.491Z,9.53
2023-01-30T14:47:49.569Z,8.66
2023-01-30T14:50:35.449Z,8.44
2023-01-30T14:51:56.690Z,8.89
2023-01-30T14:53:21.031Z,9.95
2023-01-30T14:54:44.036Z,9.29
2023-01-30T14:56:05.796Z,9.83
2023-01-30T14:57:31.943Z,10.13
2023-01-30T14:58:56.111Z,10.43
2023-01-30T15:00:19.199Z,9.08
2023-01-30T15:02:02.777Z,9.71
2023-01-30T15:03:24.010Z,9.48
2023-01-30T15:05:08.825Z,9.49
2023-01-30T15:06:34.261Z,9.93
2023-01-30T15:08:05.101Z,9.92
2023-01-30T15:09:29.469Z,9.51
2023-01-30T15:11:14.197Z,11.44
2023-01-30T15:12:57.707Z,9.86
2023-01-30T15:16:11.653Z,9.99
2023-01-30T15:17:40.213Z,11.70
2023-01-30T15:19:17.191Z,10.08
2023-01-30T15:21:05.335Z,10.06
2023-01-30T15:22:33.093Z,9.72
2023-01-30T15:24:29.974Z,9.48
2023-01-30T15:26:22.849Z,9.67
2023-01-30T15:28:01.318Z,8.44
2023-01-30T15:42:27.505Z,7.72
2023-01-30T15:44:07.671Z,8.83
2023-01-30T15:45:44.756Z,8.77
2023-01-30T15:47:28.215Z,7.67
2023-01-30T15:49:26.898Z,8.82
2023-01-30T15:50:48.972Z,8.42
2023-01-30T15:52:13.878Z,7.06
2023-01-30T15:53:36.762Z,8.55
2023-01-30T15:54:59.670Z,8.81
2023-01-30T15:57:37.604Z,9.01
2023-01-30T15:58:59.872Z,9.18
2023-01-30T16:02:11.053Z,8.69
2023-01-30T16:03:47.079Z,8.18
2023-01-30T16:05:17.196Z,9.65
2023-01-30T16:06:39.582Z,9.32
2023-01-30T16:08:04.381Z,9.39
2023-01-30T16:09:26.669Z,7.77
2023-01-30T16:10:48.266Z,8.81
2023-01-30T16:12:25.493Z,8.92
2023-01-30T16:13:47.255Z,8.87
2023-01-30T16:16:28.563Z,9.72
2023-01-30T16:17:56.552Z,10.49
2023-01-30T16:19:25.832Z,9.18
2023-01-30T16:22:15.989Z,8.37
2023-01-30T16:23:41.589Z,9.37
2023-01-30T16:25:02.843Z,12.41
2023-01-30T16:26:24.243Z,8.78
2023-01-30T16:27:45.247Z,8.99
2023-01-30T16:29:07.915Z,8.62
2023-01-30T16:30:29.425Z,8.32
2023-01-30T16:31:51.519Z,9.51
2023-01-30T16:33:15.212Z,8.69
2023-01-30T16:34:37.371Z,8.45
2023-01-30T16:35:58.687Z,6.72
2023-01-30T16:37:25.377Z,8.17
2023-01-30T16:38:50.039Z,8.18
2023-01-30T16:40:14.570Z,8.03
2023-01-30T16:48:35.607Z,8.64
2023-01-30T16:49:58.434Z,8.98
2023-01-30T16:51:20.936Z,9.13
2023-01-30T16:55:31.970Z,7.94
2023-01-30T16:56:54.145Z,7.40
2023-01-30T16:58:15.686Z,7.96
2023-01-30T16:59:37.569Z,8.18
2023-01-30T17:00:59.679Z,8.37
2023-01-30T17:03:52.585Z,8.44
2023-01-30T17:05:21.912Z,8.58
2023-01-30T17:06:43.385Z,8.36
2023-01-30T17:08:04.829Z,8.72
2023-01-30T17:09:43.044Z,9.36
2023-01-30T17:11:04.881Z,8.69
2023-01-30T17:12:29.666Z,8.78
2023-01-30T17:13:51.340Z,8.74
2023-01-30T17:15:16.592Z,8.96
2023-01-30T17:16:38.287Z,8.60
2023-01-30T17:18:00.253Z,9.03
2023-01-30T17:19:21.639Z,8.87
2023-01-30T17:20:43.256Z,8.89
2023-01-30T17:22:05.837Z,9.28
2023-01-30T17:23:27.072Z,8.63
2023-01-30T17:24:48.361Z,9.04
2023-01-30T17:26:11.176Z,9.68
2023-01-30T17:27:32.270Z,9.74
2023-01-30T17:28:53.639Z,8.27
2023-01-30T17:30:16.110Z,7.28
2023-01-30T17:31:37.435Z,7.26
2023-01-30T17:32:59.075Z,7.47
2023-01-30T17:34:20.615Z,7.79
2023-01-30T17:35:42.680Z,8.01
2023-01-30T17:37:03.752Z,8.93
2023-01-30T17:38:25.441Z,9.07
2023-01-30T17:39:46.759Z,9.21
2023-01-30T17:41:12.043Z,9.42
2023-01-30T17:42:33.169Z,9.31
2023-01-30T17:43:55.289Z,9.04
2023-01-30T17:45:16.889Z,9.33
2023-01-30T17:46:45.508Z,8.89
2023-01-30T17:48:08.207Z,8.24
2023-01-30T17:49:29.254Z,8.27
2023-01-30T17:50:50.683Z,8.27
2023-01-30T17:52:19.513Z,7.74
2023-01-30T17:53:40.825Z,7.73
2023-01-30T17:55:02.340Z,7.33
2023-01-30T17:56:30.535Z,10.02
2023-01-30T17:57:51.442Z,7.39
2023-01-30T17:59:14.056Z,7.41
2023-01-30T18:00:37.275Z,8.17
2023-01-30T18:01:59.545Z,7.69
2023-01-30T18:03:20.963Z,7.16
2023-01-30T18:04:42.417Z,7.69
2023-01-30T18:06:04.488Z,7.27
2023-01-30T18:07:27.512Z,7.55
2023-01-30T18:08:48.509Z,7.39
2023-01-30T18:11:24.707Z,7.03
2023-01-30T18:12:46.069Z,8.03
2023-01-30T18:14:07.823Z,7.69
2023-01-30T18:15:29.344Z,7.70
2023-01-30T18:16:50.895Z,8.19
2023-01-30T18:18:13.966Z,8.19
2023-01-30T18:19:35.223Z,7.84
2023-01-30T18:20:57.767Z,8.39
2023-01-30T18:22:19.071Z,7.83
2023-01-30T18:23:40.334Z,8.12
2023-01-30T18:25:01.830Z,8.54
2023-01-30T18:26:23.446Z,9.36
2023-01-30T18:27:44.677Z,9.31
2023-01-30T18:29:06.406Z,9.54
2023-01-30T18:30:27.738Z,9.98
2023-01-30T18:31:48.991Z,9.76
2023-01-30T18:33:10.465Z,9.96
2023-01-30T18:34:32.988Z,10.11
2023-01-30T18:35:54.285Z,12.27
2023-01-30T18:37:15.744Z,10.49
2023-01-30T18:38:37.581Z,10.74
2023-01-30T18:39:59.023Z,10.32
2023-01-30T18:41:21.982Z,10.56
2023-01-30T18:42:42.935Z,10.89
2023-01-30T18:45:18.831Z,10.89
2023-01-30T18:46:40.522Z,11.30
2023-01-30T18:48:01.893Z,9.89
2023-01-30T18:49:23.498Z,8.59
2023-01-30T18:50:46.874Z,8.42
2023-01-30T18:52:08.112Z,8.19
2023-01-30T18:53:29.509Z,8.50
2023-01-30T18:54:51.025Z,8.40
2023-01-30T18:56:14.360Z,8.16
2023-01-30T18:57:35.595Z,8.43
2023-01-30T18:58:57.362Z,8.19
2023-01-30T19:00:19.708Z,8.44
2023-01-30T19:03:02.788Z,7.99
2023-01-30T19:04:24.220Z,7.90
2023-01-30T19:05:45.654Z,7.57
2023-01-30T19:07:06.989Z,7.98
2023-01-30T19:08:28.062Z,8.42
2023-01-30T19:09:50.355Z,8.47
2023-01-30T19:11:16.418Z,8.43
2023-01-30T19:12:38.181Z,7.68
2023-01-30T19:13:59.920Z,8.15
2023-01-30T19:15:21.133Z,7.82
2023-01-30T19:16:42.646Z,7.57
2023-01-30T19:18:04.085Z,8.10
2023-01-30T19:19:25.190Z,8.61
2023-01-30T19:20:46.986Z,8.99
2023-01-30T19:22:08.468Z,8.73
2023-01-30T19:23:29.942Z,9.14
2023-01-30T19:24:51.331Z,9.36
2023-01-30T19:26:13.168Z,8.97
2023-01-30T19:27:37.350Z,8.57
2023-01-30T19:28:58.877Z,9.03
2023-01-30T19:30:20.895Z,8.42
2023-01-30T19:31:42.476Z,8.54
2023-01-30T19:33:03.796Z,7.74
2023-01-30T19:34:25.069Z,8.77
2023-01-30T19:35:46.703Z,8.11
2023-01-30T19:37:08.014Z,7.92
2023-01-30T19:38:29.555Z,7.92
2023-01-30T19:39:51.100Z,7.36
2023-01-30T19:41:19.611Z,7.81
2023-01-30T19:42:44.419Z,8.27
2023-01-30T19:44:04.953Z,8.35
2023-01-30T19:45:26.833Z,7.86
2023-01-30T19:46:48.253Z,8.63
2023-01-30T19:48:10.012Z,9.51
2023-01-30T19:49:31.900Z,8.93
2023-01-30T19:50:54.399Z,8.99
2023-01-30T19:52:15.733Z,8.68
2023-01-30T19:53:37.251Z,7.66
2023-01-30T19:54:58.247Z,7.61
2023-01-30T19:56:20.179Z,7.32
2023-01-30T19:57:41.764Z,7.09
2023-01-30T19:59:03.067Z,7.61
2023-01-30T20:00:24.503Z,7.46
2023-01-30T20:01:45.627Z,7.34
2023-01-30T20:03:06.995Z,6.86
2023-01-30T20:04:28.058Z,7.30
2023-01-30T20:05:49.795Z,7.40
2023-01-30T20:07:11.091Z,7.40
2023-01-30T20:08:33.301Z,6.70
2023-01-30T20:09:54.952Z,6.86
2023-01-30T20:11:17.371Z,7.43
2023-01-30T20:12:38.444Z,7.03
2023-01-30T20:13:59.553Z,6.79
2023-01-30T20:15:21.381Z,7.14
2023-01-30T20:16:43.123Z,6.83
2023-01-30T20:18:04.697Z,7.41
2023-01-30T20:19:26.124Z,6.92
2023-01-30T20:20:47.694Z,6.91
2023-01-30T20:22:09.038Z,6.71
2023-01-30T20:23:30.440Z,6.92
2023-01-30T20:24:51.970Z,6.82
2023-01-30T20:27:30.209Z,6.73
2023-01-30T20:30:14.089Z,6.98
2023-01-30T20:31:35.845Z,6.80
2023-01-30T20:32:57.384Z,7.16
2023-01-30T20:34:18.887Z,6.53
2023-01-30T20:35:39.942Z,7.20
2023-01-30T20:37:01.631Z,7.04
2023-01-30T20:38:22.816Z,6.68
2023-01-30T20:39:44.048Z,6.92
2023-01-30T20:41:06.658Z,8.57
2023-01-30T20:42:28.058Z,7.38
2023-01-30T20:43:50.737Z,6.39
2023-01-30T20:47:58.480Z,6.30
2023-01-30T20:49:22.331Z,6.69
2023-01-30T20:50:43.815Z,6.24
2023-01-30T20:52:05.609Z,6.79
2023-01-30T20:53:27.021Z,6.28
2023-01-30T20:54:48.173Z,5.98
2023-01-30T20:56:11.403Z,6.47
2023-01-30T20:57:32.946Z,6.88
2023-01-30T20:58:54.403Z,6.75
2023-01-30T21:00:17.854Z,6.79
2023-01-30T21:01:40.562Z,6.27
2023-01-30T21:04:24.951Z,6.54
2023-01-30T21:05:55.524Z,6.69
2023-01-30T21:07:17.034Z,6.44
2023-01-30T21:08:38.647Z,6.42
2023-01-30T21:09:59.931Z,6.18
2023-01-30T21:11:21.372Z,6.30
2023-01-30T21:12:44.967Z,6.06
2023-01-30T21:14:06.443Z,6.18
2023-01-30T21:15:28.987Z,6.04
2023-01-30T21:16:50.717Z,6.14
2023-01-30T21:18:11.863Z,5.91
2023-01-30T21:19:36.607Z,5.91
2023-01-30T21:21:01.328Z,6.48
2023-01-30T21:22:22.659Z,6.66
2023-01-30T21:23:45.091Z,6.67
2023-01-30T21:25:08.801Z,6.81
2023-01-30T21:26:33.871Z,7.07
2023-01-30T21:27:57.557Z,6.67
2023-01-30T21:29:21.563Z,6.38
2023-01-30T21:30:43.300Z,6.07
2023-01-30T21:32:04.534Z,6.24
2023-01-30T21:33:26.114Z,6.50
2023-01-30T21:34:47.477Z,5.82
2023-01-30T21:36:11.181Z,6.01
2023-01-30T21:37:35.202Z,6.25
2023-01-30T21:38:56.668Z,6.87
2023-01-30T21:40:18.468Z,6.71
2023-01-30T21:41:42.360Z,6.57
2023-01-30T21:43:04.772Z,6.87
2023-01-30T21:44:28.075Z,7.21
2023-01-30T21:45:49.209Z,6.78
2023-01-30T21:47:10.824Z,8.22
2023-01-30T21:48:32.279Z,11.33
2023-01-30T21:49:53.975Z,9.84
2023-01-30T21:51:15.239Z,7.14
2023-01-30T21:52:36.786Z,5.46
2023-01-30T21:53:58.120Z,5.61
2023-01-30T21:55:20.610Z,5.57
2023-01-30T21:56:42.667Z,5.54
2023-01-30T21:58:03.906Z,6.48
2023-01-30T21:59:25.999Z,5.66
2023-01-30T22:00:47.281Z,6.41
2023-01-30T22:02:10.180Z,6.34
2023-01-30T22:03:32.199Z,5.97
2023-01-30T22:04:55.953Z,5.63
2023-01-30T22:07:38.734Z,5.05
2023-01-30T22:09:00.647Z,5.63
2023-01-30T22:10:22.648Z,4.78
2023-01-30T22:11:44.322Z,5.17
2023-01-30T22:13:06.573Z,5.76
2023-01-30T22:14:27.797Z,5.33
2023-01-30T22:15:51.119Z,5.28
2023-01-30T22:17:12.590Z,5.31
2023-01-30T22:18:34.900Z,5.96
2023-01-30T22:19:56.193Z,5.70
2023-01-30T22:21:19.261Z,5.13
2023-01-30T22:22:40.902Z,4.78
2023-01-30T22:24:03.466Z,4.92
2023-01-30T22:25:24.925Z,4.83
2023-01-30T22:26:46.690Z,5.03
2023-01-30T22:28:10.218Z,4.82
2023-01-30T22:31:05.335Z,5.07
2023-01-30T22:32:26.785Z,4.71
2023-01-30T22:33:51.875Z,4.86
2023-01-30T22:35:14.073Z,4.56
2023-01-30T22:36:35.992Z,4.69
2023-01-30T22:37:57.077Z,5.17
2023-01-30T22:39:18.138Z,5.31
2023-01-30T22:40:39.953Z,4.62
2023-01-30T22:42:03.315Z,5.06
2023-01-30T22:43:25.588Z,4.49
2023-01-30T22:44:47.030Z,4.53
2023-01-30T22:46:12.063Z,4.47
2023-01-30T22:47:38.364Z,4.81
2023-01-30T22:49:00.321Z,4.62
2023-01-30T22:50:22.887Z,3.76
2023-01-30T22:51:44.357Z,4.94
2023-01-30T22:53:06.348Z,4.74
2023-01-30T22:54:27.322Z,4.96
2023-01-30T22:55:48.772Z,4.39
2023-01-30T22:57:12.057Z,4.71
2023-01-30T22:59:53.970Z,4.83
2023-01-30T23:02:30.734Z,4.69
2023-01-30T23:03:56.820Z,5.09
2023-01-30T23:05:18.822Z,5.31
2023-01-30T23:06:40.632Z,5.73
2023-01-30T23:08:01.902Z,5.93
2023-01-30T23:09:23.180Z,5.70
2023-01-30T23:10:44.696Z,5.07
2023-01-30T23:12:06.465Z,4.97
2023-01-30T23:13:28.114Z,5.16
2023-01-30T23:14:51.150Z,4.72
2023-01-30T23:16:13.349Z,4.69
2023-01-30T23:17:35.525Z,4.91
2023-01-30T23:18:57.165Z,4.69
2023-01-30T23:20:19.750Z,4.67
2023-01-30T23:21:43.625Z,4.71
2023-01-30T23:23:05.082Z,4.41
2023-01-30T23:24:26.482Z,4.43
2023-01-30T23:25:48.088Z,4.31
2023-01-30T23:27:09.219Z,4.66
2023-01-30T23:28:31.047Z,4.37
2023-01-30T23:29:52.442Z,4.51
2023-01-30T23:31:15.199Z,4.43
2023-01-30T23:33:59.654Z,4.23
2023-01-30T23:35:21.209Z,4.96
2023-01-30T23:36:42.956Z,3.52
2023-01-30T23:38:03.912Z,4.52
2023-01-30T23:39:24.979Z,4.52
2023-01-30T23:40:46.903Z,4.37
2023-01-30T23:42:08.179Z,4.51
2023-01-30T23:43:29.601Z,4.72
2023-01-30T23:44:51.278Z,4.58
2023-01-30T23:46:17.391Z,4.66
2023-01-30T23:47:40.026Z,4.93
2023-01-30T23:49:05.970Z,4.17
2023-01-30T23:50:27.211Z,4.87
2023-01-30T23:53:13.689Z,4.55
2023-01-30T23:54:36.826Z,5.09
2023-01-30T23:55:57.930Z,5.14
2023-01-30T23:57:20.334Z,4.68
2023-01-30T23:58:42.108Z,3.89
